sensor_id;sensor_type;location;lat;lon;timestamp;P1;durP1;ratioP1;P2;durP2;ratioP2
50066;SDS011;35952;52.524;13.340;2022-11-15T00:01:44;52.23;;;33.70;;
50066;SDS011;35952;52.524;13.340;2022-11-15T00:04:09;50.40;;;34.30;;
50066;SDS011;35952;52.524;13.340;2022-11-15T00:06:35;53.20;;;35.30;;
50066;SDS011;35952;52.524;13.340;2022-11-15T00:09:01;45.30;;;31.83;;
50066;SDS011;35952;52.524;13.340;2022-11-15T00:11:27;46.27;;;32.23;;
50066;SDS011;35952;52.524;13.340;2022-11-15T00:13:56;51.70;;;35.20;;
50066;SDS011;35952;52.524;13.340;2022-11-15T00:16:22;47.77;;;32.17;;
50066;SDS011;35952;52.524;13.340;2022-11-15T00:18:48;51.70;;;32.63;;
50066;SDS011;35952;52.524;13.340;2022-11-15T00:21:14;53.37;;;36.70;;
50066;SDS011;35952;52.524;13.340;2022-11-15T00:23:40;55.90;;;33.73;;
50066;SDS011;35952;52.524;13.340;2022-11-15T00:26:06;49.10;;;34.00;;
50066;SDS011;35952;52.524;13.340;2022-11-15T00:28:35;51.27;;;33.37;;
50066;SDS011;35952;52.524;13.340;2022-11-15T00:31:02;51.10;;;33.97;;
50066;SDS011;35952;52.524;13.340;2022-11-15T00:33:28;51.83;;;34.40;;
50066;SDS011;35952;52.524;13.340;2022-11-15T00:35:59;49.30;;;34.43;;
50066;SDS011;35952;52.524;13.340;2022-11-15T00:38:32;59.10;;;35.60;;
50066;SDS011;35952;52.524;13.340;2022-11-15T00:40:59;57.53;;;34.70;;
50066;SDS011;35952;52.524;13.340;2022-11-15T00:43:25;55.87;;;36.27;;
50066;SDS011;35952;52.524;13.340;2022-11-15T00:45:50;53.70;;;35.20;;
50066;SDS011;35952;52.524;13.340;2022-11-15T00:48:16;52.97;;;33.43;;
50066;SDS011;35952;52.524;13.340;2022-11-15T00:50:41;51.83;;;34.67;;
50066;SDS011;35952;52.524;13.340;2022-11-15T00:53:07;51.80;;;33.60;;
50066;SDS011;35952;52.524;13.340;2022-11-15T00:55:32;57.00;;;35.20;;
50066;SDS011;35952;52.524;13.340;2022-11-15T00:57:58;58.17;;;36.20;;
50066;SDS011;35952;52.524;13.340;2022-11-15T01:00:23;51.17;;;34.83;;
50066;SDS011;35952;52.524;13.340;2022-11-15T01:02:49;54.90;;;36.37;;
50066;SDS011;35952;52.524;13.340;2022-11-15T01:05:14;57.87;;;36.17;;
50066;SDS011;35952;52.524;13.340;2022-11-15T01:07:40;52.50;;;35.40;;
50066;SDS011;35952;52.524;13.340;2022-11-15T01:10:05;53.30;;;34.40;;
50066;SDS011;35952;52.524;13.340;2022-11-15T01:12:31;61.23;;;35.80;;
50066;SDS011;35952;52.524;13.340;2022-11-15T01:14:57;57.57;;;37.13;;
50066;SDS011;35952;52.524;13.340;2022-11-15T01:17:23;56.57;;;36.33;;
50066;SDS011;35952;52.524;13.340;2022-11-15T01:19:48;58.93;;;34.57;;
50066;SDS011;35952;52.524;13.340;2022-11-15T01:22:14;51.50;;;33.30;;
50066;SDS011;35952;52.524;13.340;2022-11-15T01:24:40;52.80;;;33.93;;
50066;SDS011;35952;52.524;13.340;2022-11-15T01:27:05;61.97;;;36.63;;
50066;SDS011;35952;52.524;13.340;2022-11-15T01:29:31;56.57;;;35.80;;
50066;SDS011;35952;52.524;13.340;2022-11-15T01:31:57;56.50;;;35.40;;
50066;SDS011;35952;52.524;13.340;2022-11-15T01:34:23;51.80;;;34.63;;
50066;SDS011;35952;52.524;13.340;2022-11-15T01:36:48;57.07;;;35.47;;
50066;SDS011;35952;52.524;13.340;2022-11-15T01:39:14;58.37;;;34.57;;
50066;SDS011;35952;52.524;13.340;2022-11-15T01:41:40;49.97;;;34.70;;
50066;SDS011;35952;52.524;13.340;2022-11-15T01:46:53;50.77;;;35.13;;
50066;SDS011;35952;52.524;13.340;2022-11-15T01:49:19;57.07;;;35.97;;
50066;SDS011;35952;52.524;13.340;2022-11-15T01:51:47;55.90;;;36.27;;
50066;SDS011;35952;52.524;13.340;2022-11-15T01:54:14;55.03;;;33.37;;
50066;SDS011;35952;52.524;13.340;2022-11-15T01:56:46;53.70;;;35.27;;
50066;SDS011;35952;52.524;13.340;2022-11-15T01:59:16;54.67;;;33.70;;
50066;SDS011;35952;52.524;13.340;2022-11-15T02:01:42;56.30;;;36.47;;
50066;SDS011;35952;52.524;13.340;2022-11-15T02:04:10;59.10;;;36.73;;
50066;SDS011;35952;52.524;13.340;2022-11-15T02:06:39;57.90;;;34.40;;
50066;SDS011;35952;52.524;13.340;2022-11-15T02:09:06;53.43;;;35.00;;
50066;SDS011;35952;52.524;13.340;2022-11-15T02:11:32;53.50;;;35.97;;
50066;SDS011;35952;52.524;13.340;2022-11-15T02:13:57;57.37;;;34.77;;
50066;SDS011;35952;52.524;13.340;2022-11-15T02:27:51;54.17;;;34.83;;
50066;SDS011;35952;52.524;13.340;2022-11-15T02:33:41;57.50;;;35.57;;
50066;SDS011;35952;52.524;13.340;2022-11-15T02:39:07;53.23;;;35.70;;
50066;SDS011;35952;52.524;13.340;2022-11-15T02:41:56;55.67;;;33.83;;
50066;SDS011;35952;52.524;13.340;2022-11-15T02:44:34;55.50;;;34.67;;
50066;SDS011;35952;52.524;13.340;2022-11-15T02:47:06;55.40;;;37.13;;
50066;SDS011;35952;52.524;13.340;2022-11-15T02:49:50;51.23;;;34.90;;
50066;SDS011;35952;52.524;13.340;2022-11-15T02:52:19;57.70;;;36.97;;
50066;SDS011;35952;52.524;13.340;2022-11-15T02:54:56;54.20;;;35.20;;
50066;SDS011;35952;52.524;13.340;2022-11-15T02:57:27;59.70;;;33.97;;
50066;SDS011;35952;52.524;13.340;2022-11-15T03:00:29;56.93;;;36.27;;
50066;SDS011;35952;52.524;13.340;2022-11-15T03:03:14;51.60;;;34.73;;
50066;SDS011;35952;52.524;13.340;2022-11-15T03:06:15;56.20;;;34.87;;
50066;SDS011;35952;52.524;13.340;2022-11-15T03:09:03;51.97;;;33.13;;
50066;SDS011;35952;52.524;13.340;2022-11-15T03:11:38;53.53;;;33.70;;
50066;SDS011;35952;52.524;13.340;2022-11-15T03:14:46;60.83;;;37.37;;
50066;SDS011;35952;52.524;13.340;2022-11-15T03:19:52;59.67;;;36.63;;
50066;SDS011;35952;52.524;13.340;2022-11-15T03:22:21;56.70;;;33.80;;
50066;SDS011;35952;52.524;13.340;2022-11-15T03:24:50;56.23;;;34.10;;
50066;SDS011;35952;52.524;13.340;2022-11-15T03:27:19;56.60;;;34.30;;
50066;SDS011;35952;52.524;13.340;2022-11-15T03:29:51;55.23;;;34.00;;
50066;SDS011;35952;52.524;13.340;2022-11-15T03:32:21;50.00;;;32.17;;
50066;SDS011;35952;52.524;13.340;2022-11-15T03:35:09;53.90;;;33.93;;
50066;SDS011;35952;52.524;13.340;2022-11-15T03:37:47;53.20;;;32.13;;
50066;SDS011;35952;52.524;13.340;2022-11-15T03:40:25;58.87;;;33.67;;
50066;SDS011;35952;52.524;13.340;2022-11-15T03:43:06;54.83;;;36.13;;
50066;SDS011;35952;52.524;13.340;2022-11-15T03:45:46;49.47;;;32.20;;
50066;SDS011;35952;52.524;13.340;2022-11-15T03:48:30;50.43;;;32.60;;
50066;SDS011;35952;52.524;13.340;2022-11-15T03:51:02;48.87;;;32.37;;
50066;SDS011;35952;52.524;13.340;2022-11-15T03:53:29;56.87;;;35.30;;
50066;SDS011;35952;52.524;13.340;2022-11-15T03:55:56;59.80;;;37.37;;
50066;SDS011;35952;52.524;13.340;2022-11-15T03:58:21;59.07;;;36.63;;
50066;SDS011;35952;52.524;13.340;2022-11-15T04:00:47;55.77;;;35.40;;
50066;SDS011;35952;52.524;13.340;2022-11-15T04:03:12;53.23;;;34.40;;
50066;SDS011;35952;52.524;13.340;2022-11-15T04:05:38;60.97;;;34.93;;
50066;SDS011;35952;52.524;13.340;2022-11-15T04:08:03;52.70;;;32.67;;
50066;SDS011;35952;52.524;13.340;2022-11-15T04:10:29;52.90;;;33.70;;
50066;SDS011;35952;52.524;13.340;2022-11-15T04:12:54;49.77;;;33.17;;
50066;SDS011;35952;52.524;13.340;2022-11-15T04:15:21;53.13;;;33.13;;
50066;SDS011;35952;52.524;13.340;2022-11-15T04:17:53;59.00;;;35.03;;
50066;SDS011;35952;52.524;13.340;2022-11-15T04:20:21;55.60;;;36.20;;
50066;SDS011;35952;52.524;13.340;2022-11-15T04:23:09;48.00;;;31.50;;
50066;SDS011;35952;52.524;13.340;2022-11-15T04:26:07;49.43;;;31.73;;
50066;SDS011;35952;52.524;13.340;2022-11-15T04:28:39;52.60;;;32.67;;
50066;SDS011;35952;52.524;13.340;2022-11-15T04:31:24;53.10;;;35.60;;
50066;SDS011;35952;52.524;13.340;2022-11-15T04:33:50;57.73;;;34.60;;
50066;SDS011;35952;52.524;13.340;2022-11-15T04:36:16;53.13;;;33.73;;
50066;SDS011;35952;52.524;13.340;2022-11-15T04:39:00;52.27;;;32.50;;
50066;SDS011;35952;52.524;13.340;2022-11-15T04:41:25;61.17;;;36.30;;
50066;SDS011;35952;52.524;13.340;2022-11-15T04:43:51;52.87;;;33.20;;
50066;SDS011;35952;52.524;13.340;2022-11-15T04:46:17;55.50;;;33.50;;
50066;SDS011;35952;52.524;13.340;2022-11-15T04:48:42;55.40;;;33.87;;
50066;SDS011;35952;52.524;13.340;2022-11-15T04:51:08;51.00;;;31.93;;
50066;SDS011;35952;52.524;13.340;2022-11-15T04:53:33;48.43;;;33.33;;
50066;SDS011;35952;52.524;13.340;2022-11-15T04:55:59;52.13;;;31.67;;
50066;SDS011;35952;52.524;13.340;2022-11-15T04:58:24;52.10;;;31.10;;
50066;SDS011;35952;52.524;13.340;2022-11-15T05:00:50;48.00;;;31.90;;
50066;SDS011;35952;52.524;13.340;2022-11-15T05:03:15;51.77;;;32.67;;
50066;SDS011;35952;52.524;13.340;2022-11-15T05:05:59;51.27;;;32.17;;
50066;SDS011;35952;52.524;13.340;2022-11-15T05:08:25;54.73;;;32.90;;
50066;SDS011;35952;52.524;13.340;2022-11-15T05:10:51;51.70;;;30.70;;
50066;SDS011;35952;52.524;13.340;2022-11-15T05:13:16;54.40;;;33.83;;
50066;SDS011;35952;52.524;13.340;2022-11-15T05:15:42;54.57;;;34.00;;
50066;SDS011;35952;52.524;13.340;2022-11-15T05:18:07;53.30;;;33.37;;
50066;SDS011;35952;52.524;13.340;2022-11-15T05:20:33;62.13;;;37.00;;
50066;SDS011;35952;52.524;13.340;2022-11-15T05:22:59;54.40;;;34.10;;
50066;SDS011;35952;52.524;13.340;2022-11-15T05:25:24;50.17;;;33.00;;
50066;SDS011;35952;52.524;13.340;2022-11-15T05:27:50;49.67;;;32.40;;
50066;SDS011;35952;52.524;13.340;2022-11-15T05:30:16;49.07;;;32.77;;
50066;SDS011;35952;52.524;13.340;2022-11-15T05:32:42;53.40;;;33.17;;
50066;SDS011;35952;52.524;13.340;2022-11-15T05:35:08;50.87;;;31.20;;
50066;SDS011;35952;52.524;13.340;2022-11-15T05:37:40;47.57;;;31.67;;
50066;SDS011;35952;52.524;13.340;2022-11-15T05:40:06;49.03;;;30.77;;
50066;SDS011;35952;52.524;13.340;2022-11-15T05:42:32;48.20;;;30.73;;
50066;SDS011;35952;52.524;13.340;2022-11-15T05:44:57;58.00;;;32.83;;
50066;SDS011;35952;52.524;13.340;2022-11-15T05:47:25;56.13;;;33.17;;
50066;SDS011;35952;52.524;13.340;2022-11-15T05:49:53;53.00;;;33.50;;
50066;SDS011;35952;52.524;13.340;2022-11-15T05:52:20;51.27;;;32.33;;
50066;SDS011;35952;52.524;13.340;2022-11-15T05:54:48;52.47;;;32.50;;
50066;SDS011;35952;52.524;13.340;2022-11-15T05:57:15;48.60;;;31.20;;
50066;SDS011;35952;52.524;13.340;2022-11-15T05:59:41;52.53;;;32.30;;
50066;SDS011;35952;52.524;13.340;2022-11-15T06:02:08;47.43;;;31.47;;
50066;SDS011;35952;52.524;13.340;2022-11-15T06:04:34;49.73;;;31.27;;
50066;SDS011;35952;52.524;13.340;2022-11-15T06:07:00;48.20;;;30.00;;
50066;SDS011;35952;52.524;13.340;2022-11-15T06:09:25;45.27;;;30.53;;
50066;SDS011;35952;52.524;13.340;2022-11-15T06:11:51;53.63;;;33.00;;
50066;SDS011;35952;52.524;13.340;2022-11-15T06:14:16;49.77;;;31.70;;
50066;SDS011;35952;52.524;13.340;2022-11-15T06:16:42;48.03;;;29.80;;
50066;SDS011;35952;52.524;13.340;2022-11-15T06:19:08;51.13;;;32.00;;
50066;SDS011;35952;52.524;13.340;2022-11-15T06:21:33;52.27;;;33.27;;
50066;SDS011;35952;52.524;13.340;2022-11-15T06:23:59;51.53;;;32.60;;
50066;SDS011;35952;52.524;13.340;2022-11-15T06:26:24;47.43;;;31.57;;
50066;SDS011;35952;52.524;13.340;2022-11-15T06:28:50;52.40;;;34.90;;
50066;SDS011;35952;52.524;13.340;2022-11-15T06:31:15;52.60;;;30.17;;
50066;SDS011;35952;52.524;13.340;2022-11-15T06:33:41;55.60;;;29.80;;
50066;SDS011;35952;52.524;13.340;2022-11-15T06:36:07;50.17;;;31.93;;
50066;SDS011;35952;52.524;13.340;2022-11-15T06:38:35;53.67;;;33.53;;
50066;SDS011;35952;52.524;13.340;2022-11-15T06:41:05;48.97;;;30.93;;
50066;SDS011;35952;52.524;13.340;2022-11-15T06:43:32;53.80;;;32.00;;
50066;SDS011;35952;52.524;13.340;2022-11-15T06:45:59;50.33;;;32.27;;
50066;SDS011;35952;52.524;13.340;2022-11-15T06:48:25;48.70;;;32.70;;
50066;SDS011;35952;52.524;13.340;2022-11-15T06:50:52;47.93;;;30.40;;
50066;SDS011;35952;52.524;13.340;2022-11-15T06:53:23;51.17;;;33.13;;
50066;SDS011;35952;52.524;13.340;2022-11-15T06:55:49;53.57;;;32.90;;
50066;SDS011;35952;52.524;13.340;2022-11-15T06:58:14;53.63;;;32.57;;
50066;SDS011;35952;52.524;13.340;2022-11-15T07:00:40;56.17;;;33.00;;
50066;SDS011;35952;52.524;13.340;2022-11-15T07:03:06;46.63;;;32.13;;
50066;SDS011;35952;52.524;13.340;2022-11-15T07:05:32;55.93;;;32.20;;
50066;SDS011;35952;52.524;13.340;2022-11-15T07:07:58;45.03;;;31.93;;
50066;SDS011;35952;52.524;13.340;2022-11-15T07:10:24;52.20;;;31.57;;
50066;SDS011;35952;52.524;13.340;2022-11-15T07:12:51;50.90;;;30.80;;
50066;SDS011;35952;52.524;13.340;2022-11-15T07:15:17;56.60;;;33.20;;
50066;SDS011;35952;52.524;13.340;2022-11-15T07:17:44;48.93;;;33.07;;
50066;SDS011;35952;52.524;13.340;2022-11-15T07:20:10;50.07;;;31.27;;
50066;SDS011;35952;52.524;13.340;2022-11-15T07:22:36;42.73;;;28.97;;
50066;SDS011;35952;52.524;13.340;2022-11-15T07:25:01;49.57;;;30.77;;
50066;SDS011;35952;52.524;13.340;2022-11-15T07:27:27;45.70;;;30.50;;
50066;SDS011;35952;52.524;13.340;2022-11-15T07:29:52;45.70;;;31.33;;
50066;SDS011;35952;52.524;13.340;2022-11-15T07:32:18;49.13;;;32.43;;
50066;SDS011;35952;52.524;13.340;2022-11-15T07:34:43;49.30;;;31.83;;
50066;SDS011;35952;52.524;13.340;2022-11-15T07:37:10;45.70;;;30.20;;
50066;SDS011;35952;52.524;13.340;2022-11-15T07:39:36;45.77;;;30.20;;
50066;SDS011;35952;52.524;13.340;2022-11-15T07:42:02;49.83;;;32.70;;
50066;SDS011;35952;52.524;13.340;2022-11-15T07:44:47;48.67;;;31.23;;
50066;SDS011;35952;52.524;13.340;2022-11-15T07:47:12;47.77;;;32.63;;
50066;SDS011;35952;52.524;13.340;2022-11-15T07:49:38;59.33;;;32.33;;
50066;SDS011;35952;52.524;13.340;2022-11-15T07:52:03;46.30;;;30.40;;
50066;SDS011;35952;52.524;13.340;2022-11-15T07:54:29;49.93;;;30.57;;
50066;SDS011;35952;52.524;13.340;2022-11-15T07:56:54;46.90;;;29.10;;
50066;SDS011;35952;52.524;13.340;2022-11-15T07:59:20;45.27;;;30.00;;
50066;SDS011;35952;52.524;13.340;2022-11-15T08:01:46;47.77;;;31.87;;
50066;SDS011;35952;52.524;13.340;2022-11-15T08:04:11;45.17;;;30.60;;
50066;SDS011;35952;52.524;13.340;2022-11-15T08:06:37;46.13;;;30.67;;
50066;SDS011;35952;52.524;13.340;2022-11-15T08:09:03;48.57;;;28.90;;
50066;SDS011;35952;52.524;13.340;2022-11-15T08:11:28;48.30;;;30.70;;
50066;SDS011;35952;52.524;13.340;2022-11-15T08:13:54;47.30;;;31.20;;
50066;SDS011;35952;52.524;13.340;2022-11-15T08:16:20;38.70;;;26.37;;
50066;SDS011;35952;52.524;13.340;2022-11-15T08:18:45;44.93;;;29.93;;
50066;SDS011;35952;52.524;13.340;2022-11-15T08:21:12;51.53;;;30.10;;
50066;SDS011;35952;52.524;13.340;2022-11-15T08:23:41;49.67;;;29.37;;
50066;SDS011;35952;52.524;13.340;2022-11-15T08:26:06;48.57;;;28.33;;
50066;SDS011;35952;52.524;13.340;2022-11-15T08:28:33;41.70;;;28.87;;
50066;SDS011;35952;52.524;13.340;2022-11-15T08:30:58;38.10;;;28.57;;
50066;SDS011;35952;52.524;13.340;2022-11-15T08:33:24;46.17;;;29.60;;
50066;SDS011;35952;52.524;13.340;2022-11-15T08:35:50;45.93;;;27.97;;
50066;SDS011;35952;52.524;13.340;2022-11-15T08:38:15;42.57;;;29.80;;
50066;SDS011;35952;52.524;13.340;2022-11-15T08:40:41;40.20;;;26.97;;
50066;SDS011;35952;52.524;13.340;2022-11-15T08:43:06;38.60;;;27.93;;
50066;SDS011;35952;52.524;13.340;2022-11-15T08:45:33;41.77;;;29.53;;
50066;SDS011;35952;52.524;13.340;2022-11-15T08:48:00;45.23;;;28.27;;
50066;SDS011;35952;52.524;13.340;2022-11-15T08:50:27;43.87;;;29.53;;
50066;SDS011;35952;52.524;13.340;2022-11-15T08:52:52;37.27;;;26.20;;
50066;SDS011;35952;52.524;13.340;2022-11-15T08:55:18;41.30;;;25.73;;
50066;SDS011;35952;52.524;13.340;2022-11-15T08:57:43;40.50;;;25.83;;
50066;SDS011;35952;52.524;13.340;2022-11-15T09:00:09;46.53;;;31.10;;
50066;SDS011;35952;52.524;13.340;2022-11-15T09:02:37;36.73;;;24.20;;
50066;SDS011;35952;52.524;13.340;2022-11-15T09:05:04;37.10;;;27.43;;
50066;SDS011;35952;52.524;13.340;2022-11-15T09:07:30;37.43;;;25.77;;
50066;SDS011;35952;52.524;13.340;2022-11-15T09:09:56;36.10;;;25.33;;
50066;SDS011;35952;52.524;13.340;2022-11-15T09:12:22;39.20;;;26.10;;
50066;SDS011;35952;52.524;13.340;2022-11-15T09:14:48;34.97;;;25.40;;
50066;SDS011;35952;52.524;13.340;2022-11-15T09:17:14;36.93;;;25.40;;
50066;SDS011;35952;52.524;13.340;2022-11-15T09:19:39;38.80;;;25.17;;
50066;SDS011;35952;52.524;13.340;2022-11-15T09:22:05;36.73;;;24.33;;
50066;SDS011;35952;52.524;13.340;2022-11-15T09:24:31;33.07;;;23.40;;
50066;SDS011;35952;52.524;13.340;2022-11-15T09:26:57;32.73;;;24.13;;
50066;SDS011;35952;52.524;13.340;2022-11-15T09:29:22;32.07;;;22.80;;
50066;SDS011;35952;52.524;13.340;2022-11-15T09:31:48;32.17;;;23.03;;
50066;SDS011;35952;52.524;13.340;2022-11-15T09:34:13;34.07;;;23.40;;
50066;SDS011;35952;52.524;13.340;2022-11-15T09:36:39;27.93;;;21.20;;
50066;SDS011;35952;52.524;13.340;2022-11-15T09:39:04;31.60;;;23.30;;
50066;SDS011;35952;52.524;13.340;2022-11-15T09:44:09;34.17;;;23.73;;
50066;SDS011;35952;52.524;13.340;2022-11-15T09:46:59;37.90;;;23.27;;
50066;SDS011;35952;52.524;13.340;2022-11-15T09:49:51;31.37;;;22.77;;
50066;SDS011;35952;52.524;13.340;2022-11-15T09:52:18;31.20;;;22.23;;
50066;SDS011;35952;52.524;13.340;2022-11-15T09:54:47;33.53;;;21.37;;
50066;SDS011;35952;52.524;13.340;2022-11-15T09:57:15;30.57;;;23.13;;
50066;SDS011;35952;52.524;13.340;2022-11-15T10:00:08;32.80;;;22.70;;
50066;SDS011;35952;52.524;13.340;2022-11-15T10:03:04;36.03;;;25.00;;
50066;SDS011;35952;52.524;13.340;2022-11-15T10:05:34;28.10;;;20.53;;
50066;SDS011;35952;52.524;13.340;2022-11-15T10:08:15;32.40;;;22.80;;
50066;SDS011;35952;52.524;13.340;2022-11-15T10:11:06;29.60;;;20.90;;
50066;SDS011;35952;52.524;13.340;2022-11-15T10:13:35;33.43;;;22.53;;
50066;SDS011;35952;52.524;13.340;2022-11-15T10:16:12;32.57;;;22.10;;
50066;SDS011;35952;52.524;13.340;2022-11-15T10:19:03;34.70;;;21.30;;
50066;SDS011;35952;52.524;13.340;2022-11-15T10:21:56;34.30;;;22.20;;
50066;SDS011;35952;52.524;13.340;2022-11-15T10:24:39;25.90;;;20.03;;
50066;SDS011;35952;52.524;13.340;2022-11-15T10:27:14;25.93;;;19.90;;
50066;SDS011;35952;52.524;13.340;2022-11-15T10:29:45;29.90;;;20.93;;
50066;SDS011;35952;52.524;13.340;2022-11-15T10:32:12;30.60;;;20.80;;
50066;SDS011;35952;52.524;13.340;2022-11-15T10:34:40;29.63;;;21.30;;
50066;SDS011;35952;52.524;13.340;2022-11-15T10:37:06;29.90;;;19.97;;
50066;SDS011;35952;52.524;13.340;2022-11-15T10:39:31;27.33;;;20.13;;
50066;SDS011;35952;52.524;13.340;2022-11-15T10:42:46;28.80;;;20.50;;
50066;SDS011;35952;52.524;13.340;2022-11-15T10:44:55;22.57;;;18.73;;
50066;SDS011;35952;52.524;13.340;2022-11-15T10:47:25;27.90;;;20.37;;
50066;SDS011;35952;52.524;13.340;2022-11-15T10:49:57;28.33;;;19.83;;
50066;SDS011;35952;52.524;13.340;2022-11-15T10:52:24;26.93;;;20.37;;
50066;SDS011;35952;52.524;13.340;2022-11-15T10:54:53;24.13;;;18.50;;
50066;SDS011;35952;52.524;13.340;2022-11-15T10:57:40;25.20;;;19.10;;
50066;SDS011;35952;52.524;13.340;2022-11-15T11:05:28;24.63;;;18.70;;
50066;SDS011;35952;52.524;13.340;2022-11-15T11:07:59;26.67;;;19.10;;
50066;SDS011;35952;52.524;13.340;2022-11-15T11:10:27;26.23;;;18.77;;
50066;SDS011;35952;52.524;13.340;2022-11-15T11:12:53;22.73;;;17.97;;
50066;SDS011;35952;52.524;13.340;2022-11-15T11:15:19;24.60;;;17.47;;
50066;SDS011;35952;52.524;13.340;2022-11-15T11:26:09;27.53;;;17.43;;
50066;SDS011;35952;52.524;13.340;2022-11-15T11:29:09;30.17;;;19.70;;
50066;SDS011;35952;52.524;13.340;2022-11-15T11:34:55;24.00;;;18.37;;
50066;SDS011;35952;52.524;13.340;2022-11-15T11:37:30;27.47;;;20.97;;
50066;SDS011;35952;52.524;13.340;2022-11-15T11:40:14;27.27;;;20.83;;
50066;SDS011;35952;52.524;13.340;2022-11-15T11:42:56;26.53;;;17.50;;
50066;SDS011;35952;52.524;13.340;2022-11-15T11:45:42;19.67;;;17.57;;
50066;SDS011;35952;52.524;13.340;2022-11-15T11:51:32;26.03;;;18.30;;
50066;SDS011;35952;52.524;13.340;2022-11-15T11:56:55;20.47;;;17.50;;
50066;SDS011;35952;52.524;13.340;2022-11-15T11:59:36;23.80;;;17.23;;
50066;SDS011;35952;52.524;13.340;2022-11-15T12:02:12;23.00;;;16.73;;
50066;SDS011;35952;52.524;13.340;2022-11-15T12:04:48;20.83;;;18.23;;
50066;SDS011;35952;52.524;13.340;2022-11-15T12:15:27;22.20;;;16.83;;
50066;SDS011;35952;52.524;13.340;2022-11-15T12:17:57;22.80;;;17.90;;
50066;SDS011;35952;52.524;13.340;2022-11-15T12:20:27;21.73;;;17.60;;
50066;SDS011;35952;52.524;13.340;2022-11-15T12:23:06;23.73;;;17.37;;
50066;SDS011;35952;52.524;13.340;2022-11-15T12:25:45;24.00;;;16.90;;
50066;SDS011;35952;52.524;13.340;2022-11-15T12:28:20;23.80;;;17.47;;
50066;SDS011;35952;52.524;13.340;2022-11-15T12:31:03;24.17;;;18.00;;
50066;SDS011;35952;52.524;13.340;2022-11-15T12:33:37;23.40;;;17.37;;
50066;SDS011;35952;52.524;13.340;2022-11-15T12:36:08;25.93;;;17.83;;
50066;SDS011;35952;52.524;13.340;2022-11-15T12:38:52;24.80;;;18.30;;
50066;SDS011;35952;52.524;13.340;2022-11-15T12:41:25;33.83;;;19.67;;
50066;SDS011;35952;52.524;13.340;2022-11-15T12:43:52;25.30;;;18.70;;
50066;SDS011;35952;52.524;13.340;2022-11-15T12:48:54;24.70;;;19.97;;
50066;SDS011;35952;52.524;13.340;2022-11-15T12:52:03;26.70;;;18.63;;
50066;SDS011;35952;52.524;13.340;2022-11-15T13:02:46;22.07;;;18.10;;
50066;SDS011;35952;52.524;13.340;2022-11-15T13:17:38;20.70;;;16.50;;
50066;SDS011;35952;52.524;13.340;2022-11-15T13:22:48;24.73;;;18.73;;
50066;SDS011;35952;52.524;13.340;2022-11-15T13:25:40;26.23;;;19.43;;
50066;SDS011;35952;52.524;13.340;2022-11-15T13:33:25;22.23;;;18.80;;
50066;SDS011;35952;52.524;13.340;2022-11-15T13:36:00;25.30;;;19.93;;
50066;SDS011;35952;52.524;13.340;2022-11-15T13:38:30;25.63;;;18.87;;
50066;SDS011;35952;52.524;13.340;2022-11-15T13:40:57;25.00;;;17.77;;
50066;SDS011;35952;52.524;13.340;2022-11-15T13:43:28;27.07;;;19.87;;
50066;SDS011;35952;52.524;13.340;2022-11-15T13:46:07;23.90;;;19.07;;
50066;SDS011;35952;52.524;13.340;2022-11-15T13:48:36;28.77;;;19.40;;
50066;SDS011;35952;52.524;13.340;2022-11-15T13:51:03;30.73;;;20.93;;
50066;SDS011;35952;52.524;13.340;2022-11-15T13:53:33;27.33;;;18.73;;
50066;SDS011;35952;52.524;13.340;2022-11-15T13:56:03;27.27;;;19.07;;
50066;SDS011;35952;52.524;13.340;2022-11-15T13:58:29;26.43;;;18.83;;
50066;SDS011;35952;52.524;13.340;2022-11-15T14:00:59;31.70;;;21.47;;
50066;SDS011;35952;52.524;13.340;2022-11-15T14:03:27;24.50;;;19.40;;
50066;SDS011;35952;52.524;13.340;2022-11-15T14:08:37;27.40;;;20.33;;
50066;SDS011;35952;52.524;13.340;2022-11-15T14:11:17;30.03;;;18.90;;
50066;SDS011;35952;52.524;13.340;2022-11-15T14:16:33;31.20;;;19.10;;
50066;SDS011;35952;52.524;13.340;2022-11-15T14:19:01;27.27;;;18.73;;
50066;SDS011;35952;52.524;13.340;2022-11-15T14:21:27;24.93;;;19.50;;
50066;SDS011;35952;52.524;13.340;2022-11-15T14:23:53;25.63;;;18.77;;
50066;SDS011;35952;52.524;13.340;2022-11-15T14:26:42;27.77;;;18.70;;
50066;SDS011;35952;52.524;13.340;2022-11-15T14:31:53;27.53;;;20.47;;
50066;SDS011;35952;52.524;13.340;2022-11-15T14:34:36;27.57;;;18.87;;
50066;SDS011;35952;52.524;13.340;2022-11-15T14:37:01;26.60;;;18.00;;
50066;SDS011;35952;52.524;13.340;2022-11-15T14:39:27;28.17;;;18.50;;
50066;SDS011;35952;52.524;13.340;2022-11-15T14:41:52;26.53;;;19.50;;
50066;SDS011;35952;52.524;13.340;2022-11-15T14:44:18;23.20;;;18.20;;
50066;SDS011;35952;52.524;13.340;2022-11-15T14:46:45;28.83;;;19.00;;
50066;SDS011;35952;52.524;13.340;2022-11-15T14:49:11;24.40;;;17.90;;
50066;SDS011;35952;52.524;13.340;2022-11-15T14:51:37;21.70;;;18.57;;
50066;SDS011;35952;52.524;13.340;2022-11-15T14:54:03;25.00;;;17.90;;
50066;SDS011;35952;52.524;13.340;2022-11-15T14:56:29;24.07;;;17.03;;
50066;SDS011;35952;52.524;13.340;2022-11-15T14:58:54;25.53;;;18.33;;
50066;SDS011;35952;52.524;13.340;2022-11-15T15:01:21;20.93;;;17.80;;
50066;SDS011;35952;52.524;13.340;2022-11-15T15:03:50;27.30;;;18.10;;
50066;SDS011;35952;52.524;13.340;2022-11-15T15:06:21;21.23;;;17.43;;
50066;SDS011;35952;52.524;13.340;2022-11-15T15:08:47;24.50;;;18.00;;
50066;SDS011;35952;52.524;13.340;2022-11-15T15:11:28;35.70;;;19.43;;
50066;SDS011;35952;52.524;13.340;2022-11-15T15:13:56;24.87;;;16.87;;
50066;SDS011;35952;52.524;13.340;2022-11-15T15:16:25;23.97;;;17.03;;
50066;SDS011;35952;52.524;13.340;2022-11-15T15:18:51;28.90;;;19.20;;
50066;SDS011;35952;52.524;13.340;2022-11-15T15:21:19;24.57;;;19.60;;
50066;SDS011;35952;52.524;13.340;2022-11-15T15:23:46;22.43;;;19.03;;
50066;SDS011;35952;52.524;13.340;2022-11-15T15:26:12;25.90;;;19.80;;
50066;SDS011;35952;52.524;13.340;2022-11-15T15:28:37;26.40;;;18.33;;
50066;SDS011;35952;52.524;13.340;2022-11-15T15:31:04;26.37;;;19.10;;
50066;SDS011;35952;52.524;13.340;2022-11-15T15:33:31;29.83;;;18.50;;
50066;SDS011;35952;52.524;13.340;2022-11-15T15:35:57;26.77;;;20.53;;
50066;SDS011;35952;52.524;13.340;2022-11-15T15:38:23;26.80;;;18.83;;
50066;SDS011;35952;52.524;13.340;2022-11-15T15:40:48;23.50;;;17.20;;
50066;SDS011;35952;52.524;13.340;2022-11-15T15:43:14;30.13;;;18.60;;
50066;SDS011;35952;52.524;13.340;2022-11-15T15:45:40;33.03;;;20.70;;
50066;SDS011;35952;52.524;13.340;2022-11-15T15:48:10;26.00;;;19.70;;
50066;SDS011;35952;52.524;13.340;2022-11-15T15:50:41;24.90;;;18.73;;
50066;SDS011;35952;52.524;13.340;2022-11-15T15:53:11;30.40;;;20.80;;
50066;SDS011;35952;52.524;13.340;2022-11-15T15:55:37;29.00;;;20.60;;
50066;SDS011;35952;52.524;13.340;2022-11-15T15:58:04;24.10;;;19.27;;
50066;SDS011;35952;52.524;13.340;2022-11-15T16:00:29;25.63;;;18.87;;